sensor_id;sensor_type;location;lat;lon;timestamp;P1;durP1;ratioP1;P2;durP2;ratioP2
23596;SDS011;40226;50.874;4.394;2022-11-27T00:01:31;27.27;;;7.57;;
23596;SDS011;40226;50.874;4.394;2022-11-27T00:04:01;21.40;;;6.90;;
23596;SDS011;40226;50.874;4.394;2022-11-27T00:06:28;20.38;;;7.20;;
23596;SDS011;40226;50.874;4.394;2022-11-27T00:08:56;20.90;;;6.85;;
23596;SDS011;40226;50.874;4.394;2022-11-27T00:11:24;25.75;;;7.97;;
23596;SDS011;40226;50.874;4.394;2022-11-27T00:13:51;26.23;;;7.60;;
23596;SDS011;40226;50.874;4.394;2022-11-27T00:16:19;25.08;;;7.20;;
23596;SDS011;40226;50.874;4.394;2022-11-27T00:18:46;22.50;;;7.60;;
23596;SDS011;40226;50.874;4.394;2022-11-27T00:21:13;25.15;;;7.88;;
23596;SDS011;40226;50.874;4.394;2022-11-27T00:23:47;26.67;;;7.40;;
23596;SDS011;40226;50.874;4.394;2022-11-27T00:26:13;28.23;;;8.27;;
23596;SDS011;40226;50.874;4.394;2022-11-27T00:28:39;17.35;;;7.18;;
23596;SDS011;40226;50.874;4.394;2022-11-27T00:31:06;22.10;;;7.65;;
23596;SDS011;40226;50.874;4.394;2022-11-27T00:33:45;27.17;;;7.20;;
23596;SDS011;40226;50.874;4.394;2022-11-27T00:36:14;23.65;;;7.53;;
23596;SDS011;40226;50.874;4.394;2022-11-27T00:38:41;22.02;;;7.00;;
23596;SDS011;40226;50.874;4.394;2022-11-27T00:41:11;25.80;;;7.72;;
23596;SDS011;40226;50.874;4.394;2022-11-27T00:43:46;28.05;;;7.25;;
23596;SDS011;40226;50.874;4.394;2022-11-27T00:46:18;24.02;;;7.40;;
23596;SDS011;40226;50.874;4.394;2022-11-27T00:48:45;23.48;;;7.13;;
23596;SDS011;40226;50.874;4.394;2022-11-27T00:54:05;24.33;;;6.68;;
23596;SDS011;40226;50.874;4.394;2022-11-27T00:56:33;24.35;;;7.28;;
23596;SDS011;40226;50.874;4.394;2022-11-27T00:59:02;22.58;;;6.20;;
23596;SDS011;40226;50.874;4.394;2022-11-27T01:01:30;18.65;;;6.20;;
23596;SDS011;40226;50.874;4.394;2022-11-27T01:03:59;18.25;;;5.72;;
23596;SDS011;40226;50.874;4.394;2022-11-27T01:06:27;20.73;;;5.95;;
23596;SDS011;40226;50.874;4.394;2022-11-27T01:08:56;21.58;;;5.95;;
23596;SDS011;40226;50.874;4.394;2022-11-27T01:11:24;18.35;;;6.10;;
23596;SDS011;40226;50.874;4.394;2022-11-27T01:14:13;19.52;;;5.47;;
23596;SDS011;40226;50.874;4.394;2022-11-27T01:16:42;19.83;;;5.82;;
23596;SDS011;40226;50.874;4.394;2022-11-27T01:19:10;15.07;;;5.18;;
23596;SDS011;40226;50.874;4.394;2022-11-27T01:21:37;16.90;;;6.10;;
23596;SDS011;40226;50.874;4.394;2022-11-27T01:24:03;18.58;;;5.20;;
23596;SDS011;40226;50.874;4.394;2022-11-27T01:26:30;12.70;;;4.88;;
23596;SDS011;40226;50.874;4.394;2022-11-27T01:28:56;14.75;;;4.95;;
23596;SDS011;40226;50.874;4.394;2022-11-27T01:31:25;18.65;;;4.63;;
23596;SDS011;40226;50.874;4.394;2022-11-27T01:33:55;18.17;;;5.28;;
23596;SDS011;40226;50.874;4.394;2022-11-27T01:36:23;17.45;;;4.65;;
23596;SDS011;40226;50.874;4.394;2022-11-27T01:38:51;20.52;;;6.38;;
23596;SDS011;40226;50.874;4.394;2022-11-27T01:41:21;15.43;;;4.97;;
23596;SDS011;40226;50.874;4.394;2022-11-27T01:48:55;14.80;;;4.75;;
23596;SDS011;40226;50.874;4.394;2022-11-27T01:51:45;16.50;;;5.13;;
23596;SDS011;40226;50.874;4.394;2022-11-27T01:54:15;15.75;;;4.65;;
23596;SDS011;40226;50.874;4.394;2022-11-27T01:56:45;18.20;;;4.78;;
23596;SDS011;40226;50.874;4.394;2022-11-27T01:59:15;14.80;;;4.47;;
23596;SDS011;40226;50.874;4.394;2022-11-27T02:01:42;17.15;;;4.70;;
23596;SDS011;40226;50.874;4.394;2022-11-27T02:04:08;18.60;;;4.97;;
23596;SDS011;40226;50.874;4.394;2022-11-27T02:06:34;18.73;;;5.18;;
23596;SDS011;40226;50.874;4.394;2022-11-27T02:09:01;16.38;;;5.05;;
23596;SDS011;40226;50.874;4.394;2022-11-27T02:14:18;15.77;;;5.32;;
23596;SDS011;40226;50.874;4.394;2022-11-27T02:17:42;10.98;;;4.30;;
23596;SDS011;40226;50.874;4.394;2022-11-27T02:20:13;11.63;;;4.20;;
23596;SDS011;40226;50.874;4.394;2022-11-27T02:37:31;14.65;;;3.97;;
23596;SDS011;40226;50.874;4.394;2022-11-27T02:43:13;9.15;;;3.70;;
23596;SDS011;40226;50.874;4.394;2022-11-27T02:45:48;9.73;;;3.88;;
23596;SDS011;40226;50.874;4.394;2022-11-27T02:48:23;11.13;;;3.50;;
23596;SDS011;40226;50.874;4.394;2022-11-27T02:51:10;11.15;;;4.05;;
23596;SDS011;40226;50.874;4.394;2022-11-27T02:54:01;7.07;;;3.30;;
23596;SDS011;40226;50.874;4.394;2022-11-27T02:56:27;10.40;;;3.92;;
23596;SDS011;40226;50.874;4.394;2022-11-27T02:58:56;8.18;;;3.95;;
23596;SDS011;40226;50.874;4.394;2022-11-27T03:01:31;12.25;;;3.55;;
23596;SDS011;40226;50.874;4.394;2022-11-27T03:03:59;11.57;;;4.40;;
23596;SDS011;40226;50.874;4.394;2022-11-27T03:06:39;12.00;;;4.13;;
23596;SDS011;40226;50.874;4.394;2022-11-27T03:09:11;12.18;;;3.85;;
23596;SDS011;40226;50.874;4.394;2022-11-27T03:11:41;12.15;;;4.07;;
23596;SDS011;40226;50.874;4.394;2022-11-27T03:14:09;9.68;;;4.07;;
23596;SDS011;40226;50.874;4.394;2022-11-27T03:16:44;15.18;;;4.07;;
23596;SDS011;40226;50.874;4.394;2022-11-27T03:22:19;10.27;;;3.67;;
23596;SDS011;40226;50.874;4.394;2022-11-27T03:24:46;11.32;;;4.20;;
23596;SDS011;40226;50.874;4.394;2022-11-27T03:27:14;13.52;;;3.95;;
23596;SDS011;40226;50.874;4.394;2022-11-27T03:32:13;9.98;;;4.30;;
23596;SDS011;40226;50.874;4.394;2022-11-27T03:34:39;14.35;;;5.05;;
23596;SDS011;40226;50.874;4.394;2022-11-27T03:37:06;12.63;;;4.20;;
23596;SDS011;40226;50.874;4.394;2022-11-27T03:39:32;13.32;;;4.50;;
23596;SDS011;40226;50.874;4.394;2022-11-27T03:42:13;11.75;;;4.47;;
23596;SDS011;40226;50.874;4.394;2022-11-27T03:44:45;11.07;;;4.43;;
23596;SDS011;40226;50.874;4.394;2022-11-27T03:47:40;10.60;;;4.13;;
23596;SDS011;40226;50.874;4.394;2022-11-27T03:51:13;14.38;;;5.30;;
23596;SDS011;40226;50.874;4.394;2022-11-27T03:56:30;15.35;;;5.07;;
23596;SDS011;40226;50.874;4.394;2022-11-27T03:59:15;8.98;;;4.50;;
23596;SDS011;40226;50.874;4.394;2022-11-27T04:01:47;9.68;;;4.43;;
23596;SDS011;40226;50.874;4.394;2022-11-27T04:04:12;12.98;;;4.63;;
23596;SDS011;40226;50.874;4.394;2022-11-27T04:06:38;13.02;;;4.72;;
23596;SDS011;40226;50.874;4.394;2022-11-27T04:09:04;12.23;;;4.35;;
23596;SDS011;40226;50.874;4.394;2022-11-27T04:11:30;12.10;;;4.53;;
23596;SDS011;40226;50.874;4.394;2022-11-27T04:13:56;14.93;;;4.28;;
23596;SDS011;40226;50.874;4.394;2022-11-27T04:16:22;13.57;;;4.75;;
23596;SDS011;40226;50.874;4.394;2022-11-27T04:18:47;15.90;;;4.75;;
23596;SDS011;40226;50.874;4.394;2022-11-27T04:21:13;12.90;;;4.28;;
23596;SDS011;40226;50.874;4.394;2022-11-27T04:23:40;14.27;;;4.93;;
23596;SDS011;40226;50.874;4.394;2022-11-27T04:26:06;10.02;;;4.30;;
23596;SDS011;40226;50.874;4.394;2022-11-27T04:28:32;16.52;;;4.32;;
23596;SDS011;40226;50.874;4.394;2022-11-27T04:30:59;11.10;;;5.30;;
23596;SDS011;40226;50.874;4.394;2022-11-27T04:33:25;12.48;;;4.93;;
23596;SDS011;40226;50.874;4.394;2022-11-27T04:35:51;15.63;;;4.80;;
23596;SDS011;40226;50.874;4.394;2022-11-27T04:38:17;11.98;;;4.68;;
23596;SDS011;40226;50.874;4.394;2022-11-27T04:40:43;15.68;;;5.22;;
23596;SDS011;40226;50.874;4.394;2022-11-27T04:43:11;12.93;;;5.45;;
23596;SDS011;40226;50.874;4.394;2022-11-27T04:45:37;12.73;;;4.97;;
23596;SDS011;40226;50.874;4.394;2022-11-27T04:48:04;13.05;;;4.78;;
23596;SDS011;40226;50.874;4.394;2022-11-27T04:50:35;16.08;;;4.82;;
23596;SDS011;40226;50.874;4.394;2022-11-27T04:53:00;12.20;;;4.85;;
23596;SDS011;40226;50.874;4.394;2022-11-27T04:55:26;14.38;;;5.47;;
23596;SDS011;40226;50.874;4.394;2022-11-27T04:57:53;11.25;;;5.07;;
23596;SDS011;40226;50.874;4.394;2022-11-27T05:00:31;14.23;;;5.50;;
23596;SDS011;40226;50.874;4.394;2022-11-27T05:02:57;13.48;;;5.03;;
23596;SDS011;40226;50.874;4.394;2022-11-27T05:05:23;14.23;;;5.03;;
23596;SDS011;40226;50.874;4.394;2022-11-27T05:07:48;11.07;;;4.90;;
23596;SDS011;40226;50.874;4.394;2022-11-27T05:10:14;14.45;;;5.65;;
23596;SDS011;40226;50.874;4.394;2022-11-27T05:12:40;11.23;;;4.95;;
23596;SDS011;40226;50.874;4.394;2022-11-27T05:15:06;12.55;;;5.72;;
23596;SDS011;40226;50.874;4.394;2022-11-27T05:17:32;11.02;;;5.03;;
23596;SDS011;40226;50.874;4.394;2022-11-27T05:19:57;13.85;;;5.10;;
23596;SDS011;40226;50.874;4.394;2022-11-27T05:22:23;16.10;;;5.68;;
23596;SDS011;40226;50.874;4.394;2022-11-27T05:24:49;13.88;;;5.80;;
23596;SDS011;40226;50.874;4.394;2022-11-27T05:27:15;11.18;;;5.15;;
23596;SDS011;40226;50.874;4.394;2022-11-27T05:29:44;12.38;;;5.88;;
23596;SDS011;40226;50.874;4.394;2022-11-27T05:32:12;18.55;;;6.20;;
23596;SDS011;40226;50.874;4.394;2022-11-27T05:34:37;15.40;;;6.05;;
23596;SDS011;40226;50.874;4.394;2022-11-27T05:37:05;12.35;;;5.85;;
23596;SDS011;40226;50.874;4.394;2022-11-27T05:39:30;17.42;;;6.07;;
23596;SDS011;40226;50.874;4.394;2022-11-27T05:41:56;16.08;;;6.70;;
23596;SDS011;40226;50.874;4.394;2022-11-27T05:44:22;15.45;;;6.70;;
23596;SDS011;40226;50.874;4.394;2022-11-27T05:46:47;13.85;;;6.07;;
23596;SDS011;40226;50.874;4.394;2022-11-27T05:49:13;14.90;;;5.95;;
23596;SDS011;40226;50.874;4.394;2022-11-27T05:51:40;15.10;;;6.05;;
23596;SDS011;40226;50.874;4.394;2022-11-27T05:54:07;14.38;;;6.00;;
23596;SDS011;40226;50.874;4.394;2022-11-27T05:56:32;15.98;;;6.63;;
23596;SDS011;40226;50.874;4.394;2022-11-27T05:58:58;14.88;;;6.47;;
23596;SDS011;40226;50.874;4.394;2022-11-27T06:01:23;13.30;;;5.97;;
23596;SDS011;40226;50.874;4.394;2022-11-27T06:06:18;15.98;;;6.20;;
23596;SDS011;40226;50.874;4.394;2022-11-27T06:08:44;21.17;;;7.05;;
23596;SDS011;40226;50.874;4.394;2022-11-27T06:11:20;14.70;;;6.70;;
23596;SDS011;40226;50.874;4.394;2022-11-27T06:13:47;16.83;;;6.55;;
23596;SDS011;40226;50.874;4.394;2022-11-27T06:16:16;19.27;;;6.93;;
23596;SDS011;40226;50.874;4.394;2022-11-27T06:18:43;17.02;;;7.25;;
23596;SDS011;40226;50.874;4.394;2022-11-27T06:21:13;15.50;;;5.97;;
23596;SDS011;40226;50.874;4.394;2022-11-27T06:23:40;14.88;;;6.25;;
23596;SDS011;40226;50.874;4.394;2022-11-27T06:26:10;16.25;;;6.40;;
23596;SDS011;40226;50.874;4.394;2022-11-27T06:28:41;15.20;;;6.30;;
23596;SDS011;40226;50.874;4.394;2022-11-27T06:31:08;15.50;;;6.55;;
23596;SDS011;40226;50.874;4.394;2022-11-27T06:33:36;18.48;;;6.90;;
23596;SDS011;40226;50.874;4.394;2022-11-27T06:36:02;16.70;;;6.95;;
23596;SDS011;40226;50.874;4.394;2022-11-27T06:38:30;18.00;;;6.57;;
23596;SDS011;40226;50.874;4.394;2022-11-27T06:41:06;16.38;;;6.47;;
23596;SDS011;40226;50.874;4.394;2022-11-27T06:43:34;15.85;;;6.72;;
23596;SDS011;40226;50.874;4.394;2022-11-27T06:46:00;16.02;;;6.88;;
23596;SDS011;40226;50.874;4.394;2022-11-27T06:48:27;17.33;;;6.95;;
23596;SDS011;40226;50.874;4.394;2022-11-27T06:50:53;15.45;;;6.43;;
23596;SDS011;40226;50.874;4.394;2022-11-27T06:53:22;17.77;;;6.82;;
23596;SDS011;40226;50.874;4.394;2022-11-27T06:55:48;15.38;;;6.70;;
23596;SDS011;40226;50.874;4.394;2022-11-27T06:58:13;14.65;;;6.43;;
23596;SDS011;40226;50.874;4.394;2022-11-27T07:00:39;13.93;;;6.40;;
23596;SDS011;40226;50.874;4.394;2022-11-27T07:03:05;16.10;;;6.22;;
23596;SDS011;40226;50.874;4.394;2022-11-27T07:05:30;13.63;;;5.80;;
23596;SDS011;40226;50.874;4.394;2022-11-27T07:07:57;15.57;;;6.07;;
23596;SDS011;40226;50.874;4.394;2022-11-27T07:10:23;16.45;;;6.95;;
23596;SDS011;40226;50.874;4.394;2022-11-27T07:12:48;18.20;;;6.68;;
23596;SDS011;40226;50.874;4.394;2022-11-27T07:15:14;16.08;;;6.88;;
23596;SDS011;40226;50.874;4.394;2022-11-27T07:17:39;16.92;;;6.63;;
23596;SDS011;40226;50.874;4.394;2022-11-27T07:20:05;16.13;;;6.20;;
23596;SDS011;40226;50.874;4.394;2022-11-27T07:22:32;17.50;;;6.25;;
23596;SDS011;40226;50.874;4.394;2022-11-27T07:24:57;16.45;;;6.70;;
23596;SDS011;40226;50.874;4.394;2022-11-27T07:27:23;17.98;;;6.53;;
23596;SDS011;40226;50.874;4.394;2022-11-27T07:29:50;13.13;;;6.20;;
23596;SDS011;40226;50.874;4.394;2022-11-27T07:32:17;14.40;;;6.72;;
23596;SDS011;40226;50.874;4.394;2022-11-27T07:34:42;16.33;;;6.50;;
23596;SDS011;40226;50.874;4.394;2022-11-27T07:37:08;16.13;;;6.70;;
23596;SDS011;40226;50.874;4.394;2022-11-27T07:39:33;14.75;;;6.70;;
23596;SDS011;40226;50.874;4.394;2022-11-27T07:41:59;15.90;;;6.53;;
23596;SDS011;40226;50.874;4.394;2022-11-27T07:44:25;15.57;;;6.50;;
23596;SDS011;40226;50.874;4.394;2022-11-27T07:46:50;12.60;;;5.78;;
23596;SDS011;40226;50.874;4.394;2022-11-27T07:49:16;14.25;;;6.80;;
23596;SDS011;40226;50.874;4.394;2022-11-27T07:51:41;13.18;;;6.32;;
23596;SDS011;40226;50.874;4.394;2022-11-27T07:54:08;14.55;;;7.13;;
23596;SDS011;40226;50.874;4.394;2022-11-27T07:56:34;14.88;;;7.28;;
23596;SDS011;40226;50.874;4.394;2022-11-27T07:59:01;16.17;;;6.85;;
23596;SDS011;40226;50.874;4.394;2022-11-27T08:01:26;13.75;;;6.90;;
23596;SDS011;40226;50.874;4.394;2022-11-27T08:03:52;18.30;;;7.30;;
23596;SDS011;40226;50.874;4.394;2022-11-27T08:06:18;16.02;;;6.80;;
23596;SDS011;40226;50.874;4.394;2022-11-27T08:08:49;17.10;;;7.15;;
23596;SDS011;40226;50.874;4.394;2022-11-27T08:11:20;16.60;;;6.88;;
23596;SDS011;40226;50.874;4.394;2022-11-27T08:16:18;12.35;;;6.22;;
23596;SDS011;40226;50.874;4.394;2022-11-27T08:18:44;18.30;;;7.28;;
23596;SDS011;40226;50.874;4.394;2022-11-27T08:21:10;18.75;;;7.00;;
23596;SDS011;40226;50.874;4.394;2022-11-27T08:23:37;16.13;;;7.43;;
23596;SDS011;40226;50.874;4.394;2022-11-27T08:26:08;21.00;;;7.40;;
23596;SDS011;40226;50.874;4.394;2022-11-27T08:28:34;13.27;;;6.72;;
23596;SDS011;40226;50.874;4.394;2022-11-27T08:31:01;16.98;;;7.85;;
23596;SDS011;40226;50.874;4.394;2022-11-27T08:33:28;17.98;;;8.05;;
23596;SDS011;40226;50.874;4.394;2022-11-27T08:35:55;13.05;;;7.05;;
23596;SDS011;40226;50.874;4.394;2022-11-27T08:38:21;17.73;;;6.97;;
23596;SDS011;40226;50.874;4.394;2022-11-27T08:40:56;14.15;;;7.47;;
23596;SDS011;40226;50.874;4.394;2022-11-27T08:43:24;13.63;;;6.63;;
23596;SDS011;40226;50.874;4.394;2022-11-27T08:45:50;13.98;;;6.38;;
23596;SDS011;40226;50.874;4.394;2022-11-27T08:48:17;17.38;;;7.50;;
23596;SDS011;40226;50.874;4.394;2022-11-27T08:50:43;13.13;;;6.47;;
23596;SDS011;40226;50.874;4.394;2022-11-27T08:53:09;14.30;;;6.50;;
23596;SDS011;40226;50.874;4.394;2022-11-27T08:55:34;17.13;;;7.10;;
23596;SDS011;40226;50.874;4.394;2022-11-27T08:58:00;16.23;;;7.53;;
23596;SDS011;40226;50.874;4.394;2022-11-27T09:00:26;14.90;;;6.93;;
23596;SDS011;40226;50.874;4.394;2022-11-27T09:02:54;13.35;;;6.60;;
23596;SDS011;40226;50.874;4.394;2022-11-27T09:05:26;15.60;;;7.50;;
23596;SDS011;40226;50.874;4.394;2022-11-27T09:07:52;19.02;;;7.43;;
23596;SDS011;40226;50.874;4.394;2022-11-27T09:10:18;15.50;;;7.10;;
23596;SDS011;40226;50.874;4.394;2022-11-27T09:12:47;20.08;;;6.38;;
23596;SDS011;40226;50.874;4.394;2022-11-27T09:15:13;16.20;;;6.68;;
23596;SDS011;40226;50.874;4.394;2022-11-27T09:17:40;14.95;;;7.15;;
23596;SDS011;40226;50.874;4.394;2022-11-27T09:20:06;12.68;;;6.75;;
23596;SDS011;40226;50.874;4.394;2022-11-27T09:22:33;13.75;;;7.20;;
23596;SDS011;40226;50.874;4.394;2022-11-27T09:24:59;18.15;;;6.45;;
23596;SDS011;40226;50.874;4.394;2022-11-27T09:27:25;13.32;;;6.68;;
23596;SDS011;40226;50.874;4.394;2022-11-27T09:29:51;17.17;;;7.97;;
23596;SDS011;40226;50.874;4.394;2022-11-27T09:32:17;13.75;;;7.20;;
23596;SDS011;40226;50.874;4.394;2022-11-27T09:34:42;14.98;;;7.15;;
23596;SDS011;40226;50.874;4.394;2022-11-27T09:37:08;16.33;;;7.78;;
23596;SDS011;40226;50.874;4.394;2022-11-27T09:39:34;13.88;;;6.50;;
23596;SDS011;40226;50.874;4.394;2022-11-27T09:42:00;12.57;;;6.95;;
23596;SDS011;40226;50.874;4.394;2022-11-27T09:44:30;21.13;;;8.60;;
23596;SDS011;40226;50.874;4.394;2022-11-27T09:49:44;19.08;;;9.25;;
23596;SDS011;40226;50.874;4.394;2022-11-27T09:52:35;17.35;;;8.60;;
23596;SDS011;40226;50.874;4.394;2022-11-27T10:00:39;16.25;;;7.85;;
23596;SDS011;40226;50.874;4.394;2022-11-27T10:03:11;23.65;;;9.90;;
23596;SDS011;40226;50.874;4.394;2022-11-27T10:05:59;18.23;;;8.98;;
23596;SDS011;40226;50.874;4.394;2022-11-27T10:08:44;19.42;;;8.82;;
23596;SDS011;40226;50.874;4.394;2022-11-27T10:14:32;20.48;;;8.80;;
23596;SDS011;40226;50.874;4.394;2022-11-27T10:17:09;17.85;;;8.43;;
23596;SDS011;40226;50.874;4.394;2022-11-27T10:22:53;23.02;;;8.80;;
23596;SDS011;40226;50.874;4.394;2022-11-27T10:28:27;19.15;;;8.85;;
23596;SDS011;40226;50.874;4.394;2022-11-27T10:31:02;20.02;;;8.63;;
23596;SDS011;40226;50.874;4.394;2022-11-27T10:33:36;20.52;;;9.13;;
23596;SDS011;40226;50.874;4.394;2022-11-27T10:42:10;20.15;;;8.68;;
23596;SDS011;40226;50.874;4.394;2022-11-27T10:44:43;18.85;;;8.98;;
23596;SDS011;40226;50.874;4.394;2022-11-27T10:47:24;15.85;;;8.43;;
23596;SDS011;40226;50.874;4.394;2022-11-27T10:49:52;16.92;;;8.35;;
23596;SDS011;40226;50.874;4.394;2022-11-27T10:52:21;18.45;;;8.95;;
23596;SDS011;40226;50.874;4.394;2022-11-27T10:54:55;14.23;;;8.52;;
23596;SDS011;40226;50.874;4.394;2022-11-27T10:57:49;14.63;;;8.10;;
23596;SDS011;40226;50.874;4.394;2022-11-27T11:03:00;20.00;;;8.40;;
23596;SDS011;40226;50.874;4.394;2022-11-27T11:05:30;17.67;;;8.27;;
23596;SDS011;40226;50.874;4.394;2022-11-27T11:08:04;15.55;;;8.68;;
23596;SDS011;40226;50.874;4.394;2022-11-27T11:10:48;20.63;;;8.77;;
23596;SDS011;40226;50.874;4.394;2022-11-27T11:13:28;17.15;;;7.93;;
23596;SDS011;40226;50.874;4.394;2022-11-27T11:18:41;17.05;;;8.13;;
23596;SDS011;40226;50.874;4.394;2022-11-27T11:21:55;15.10;;;7.82;;
23596;SDS011;40226;50.874;4.394;2022-11-27T11:29:28;16.52;;;8.38;;
23596;SDS011;40226;50.874;4.394;2022-11-27T11:31:57;18.25;;;8.20;;
23596;SDS011;40226;50.874;4.394;2022-11-27T11:37:04;13.52;;;7.35;;
23596;SDS011;40226;50.874;4.394;2022-11-27T11:39:34;16.13;;;8.10;;
23596;SDS011;40226;50.874;4.394;2022-11-27T11:42:30;17.45;;;8.18;;
23596;SDS011;40226;50.874;4.394;2022-11-27T11:47:48;14.55;;;8.15;;
23596;SDS011;40226;50.874;4.394;2022-11-27T11:50:21;13.18;;;7.15;;
23596;SDS011;40226;50.874;4.394;2022-11-27T11:52:58;14.00;;;8.23;;
23596;SDS011;40226;50.874;4.394;2022-11-27T12:00:44;15.88;;;8.02;;
23596;SDS011;40226;50.874;4.394;2022-11-27T12:03:21;19.02;;;8.10;;
23596;SDS011;40226;50.874;4.394;2022-11-27T12:08:47;20.55;;;7.97;;
23596;SDS011;40226;50.874;4.394;2022-11-27T12:11:15;15.32;;;7.93;;
23596;SDS011;40226;50.874;4.394;2022-11-27T12:30:10;16.75;;;8.95;;
23596;SDS011;40226;50.874;4.394;2022-11-27T12:32:54;15.38;;;7.85;;
23596;SDS011;40226;50.874;4.394;2022-11-27T12:38:42;17.45;;;8.75;;
23596;SDS011;40226;50.874;4.394;2022-11-27T12:41:31;17.73;;;8.43;;
23596;SDS011;40226;50.874;4.394;2022-11-27T12:44:01;17.08;;;8.73;;
23596;SDS011;40226;50.874;4.394;2022-11-27T12:46:34;16.73;;;8.52;;
23596;SDS011;40226;50.874;4.394;2022-11-27T12:49:21;14.02;;;7.43;;
23596;SDS011;40226;50.874;4.394;2022-11-27T12:52:10;16.55;;;8.32;;
23596;SDS011;40226;50.874;4.394;2022-11-27T12:54:50;15.07;;;8.27;;
23596;SDS011;40226;50.874;4.394;2022-11-27T12:57:34;14.75;;;8.18;;
23596;SDS011;40226;50.874;4.394;2022-11-27T13:05:24;15.98;;;8.48;;
23596;SDS011;40226;50.874;4.394;2022-11-27T13:10:26;13.40;;;7.53;;
23596;SDS011;40226;50.874;4.394;2022-11-27T13:13:16;16.02;;;8.20;;
23596;SDS011;40226;50.874;4.394;2022-11-27T13:15:53;17.83;;;8.50;;
23596;SDS011;40226;50.874;4.394;2022-11-27T13:18:37;17.88;;;7.88;;
23596;SDS011;40226;50.874;4.394;2022-11-27T13:21:11;14.38;;;8.35;;
23596;SDS011;40226;50.874;4.394;2022-11-27T13:23:41;15.30;;;7.70;;
23596;SDS011;40226;50.874;4.394;2022-11-27T13:26:16;14.57;;;7.68;;
23596;SDS011;40226;50.874;4.394;2022-11-27T13:28:51;17.45;;;8.52;;
23596;SDS011;40226;50.874;4.394;2022-11-27T13:31:20;14.93;;;7.45;;
23596;SDS011;40226;50.874;4.394;2022-11-27T13:33:48;16.42;;;8.27;;
23596;SDS011;40226;50.874;4.394;2022-11-27T13:36:17;16.02;;;8.10;;
23596;SDS011;40226;50.874;4.394;2022-11-27T13:38:54;17.92;;;8.52;;
23596;SDS011;40226;50.874;4.394;2022-11-27T13:41:30;14.55;;;7.85;;
23596;SDS011;40226;50.874;4.394;2022-11-27T13:44:04;16.60;;;8.13;;
23596;SDS011;40226;50.874;4.394;2022-11-27T13:46:48;13.52;;;7.18;;
23596;SDS011;40226;50.874;4.394;2022-11-27T13:49:27;14.60;;;8.13;;
23596;SDS011;40226;50.874;4.394;2022-11-27T13:52:05;17.00;;;8.02;;
23596;SDS011;40226;50.874;4.394;2022-11-27T13:54:33;13.68;;;7.28;;
23596;SDS011;40226;50.874;4.394;2022-11-27T13:57:09;13.85;;;6.80;;
23596;SDS011;40226;50.874;4.394;2022-11-27T13:59:38;14.20;;;6.88;;
23596;SDS011;40226;50.874;4.394;2022-11-27T14:02:04;11.60;;;7.63;;
23596;SDS011;40226;50.874;4.394;2022-11-27T14:04:31;14.00;;;7.30;;
23596;SDS011;40226;50.874;4.394;2022-11-27T14:07:03;15.02;;;7.95;;
23596;SDS011;40226;50.874;4.394;2022-11-27T14:09:33;14.13;;;7.28;;
23596;SDS011;40226;50.874;4.394;2022-11-27T14:12:14;12.82;;;7.60;;
23596;SDS011;40226;50.874;4.394;2022-11-27T14:14:55;13.35;;;7.03;;
23596;SDS011;40226;50.874;4.394;2022-11-27T14:17:44;13.35;;;7.65;;
23596;SDS011;40226;50.874;4.394;2022-11-27T14:22:45;13.70;;;6.95;;
23596;SDS011;40226;50.874;4.394;2022-11-27T14:25:23;19.65;;;9.15;;
23596;SDS011;40226;50.874;4.394;2022-11-27T14:28:03;12.98;;;7.18;;
23596;SDS011;40226;50.874;4.394;2022-11-27T14:30:55;10.32;;;6.20;;
23596;SDS011;40226;50.874;4.394;2022-11-27T14:33:27;11.57;;;6.28;;
23596;SDS011;40226;50.874;4.394;2022-11-27T14:36:06;10.18;;;5.88;;
23596;SDS011;40226;50.874;4.394;2022-11-27T14:38:33;12.38;;;6.22;;
23596;SDS011;40226;50.874;4.394;2022-11-27T14:41:07;15.10;;;7.65;;
23596;SDS011;40226;50.874;4.394;2022-11-27T14:43:42;12.48;;;6.10;;
23596;SDS011;40226;50.874;4.394;2022-11-27T14:46:14;12.18;;;6.78;;
23596;SDS011;40226;50.874;4.394;2022-11-27T14:48:47;11.25;;;6.93;;
23596;SDS011;40226;50.874;4.394;2022-11-27T14:51:25;10.75;;;6.70;;
23596;SDS011;40226;50.874;4.394;2022-11-27T14:53:55;12.45;;;6.50;;
23596;SDS011;40226;50.874;4.394;2022-11-27T14:56:35;13.43;;;6.87;;
23596;SDS011;40226;50.874;4.394;2022-11-27T14:59:17;15.70;;;7.25;;
23596;SDS011;40226;50.874;4.394;2022-11-27T15:01:45;14.85;;;8.00;;
23596;SDS011;40226;50.874;4.394;2022-11-27T15:04:34;12.57;;;6.43;;
23596;SDS011;40226;50.874;4.394;2022-11-27T15:07:04;14.48;;;7.75;;
23596;SDS011;40226;50.874;4.394;2022-11-27T15:09:42;15.23;;;7.43;;
23596;SDS011;40226;50.874;4.394;2022-11-27T15:12:17;12.07;;;6.25;;
23596;SDS011;40226;50.874;4.394;2022-11-27T15:15:03;12.73;;;6.50;;
23596;SDS011;40226;50.874;4.394;2022-11-27T15:17:34;12.75;;;6.82;;
23596;SDS011;40226;50.874;4.394;2022-11-27T15:20:03;15.63;;;6.97;;
23596;SDS011;40226;50.874;4.394;2022-11-27T15:22:55;13.52;;;7.10;;
23596;SDS011;40226;50.874;4.394;2022-11-27T15:25:39;13.68;;;7.40;;
23596;SDS011;40226;50.874;4.394;2022-11-27T15:31:00;14.20;;;7.03;;
23596;SDS011;40226;50.874;4.394;2022-11-27T15:34:47;12.20;;;6.82;;
23596;SDS011;40226;50.874;4.394;2022-11-27T15:36:42;15.85;;;7.35;;
23596;SDS011;40226;50.874;4.394;2022-11-27T15:39:23;14.95;;;7.90;;
23596;SDS011;40226;50.874;4.394;2022-11-27T15:42:00;14.70;;;7.82;;
23596;SDS011;40226;50.874;4.394;2022-11-27T15:44:28;13.07;;;7.57;;
23596;SDS011;40226;50.874;4.394;2022-11-27T15:46:56;13.38;;;7.80;;
23596;SDS011;40226;50.874;4.394;2022-11-27T15:49:23;15.68;;;6.55;;
23596;SDS011;40226;50.874;4.394;2022-11-27T15:51:49;11.68;;;6.75;;
23596;SDS011;40226;50.874;4.394;2022-11-27T15:54:15;13.18;;;7.57;;
23596;SDS011;40226;50.874;4.394;2022-11-27T15:56:46;13.10;;;7.57;;
23596;SDS011;40226;50.874;4.394;2022-11-27T15:59:12;12.75;;;6.80;;
23596;SDS011;40226;50.874;4.394;2022-11-27T16:01:38;12.23;;;7.53;;
23596;SDS011;40226;50.874;4.394;2022-11-27T16:04:04;12.57;;;7.07;;
23596;SDS011;40226;50.874;4.394;2022-11-27T16:06:30;12.90;;;7.43;;
23596;SDS011;40226;50.874;4.394;2022-11-27T16:08:59;13.25;;;7.07;;
23596;SDS011;40226;50.874;4.394;2022-11-27T16:11:26;11.05;;;6.72;;
23596;SDS011;40226;50.874;4.394;2022-11-27T16:16:58;13.40;;;7.32;;
23596;SDS011;40226;50.874;4.394;2022-11-27T16:19:25;13.30;;;7.28;;
23596;SDS011;40226;50.874;4.394;2022-11-27T16:22:10;17.02;;;8.02;;
23596;SDS011;40226;50.874;4.394;2022-11-27T16:24:36;11.95;;;7.60;;
23596;SDS011;40226;50.874;4.394;2022-11-27T16:27:02;14.60;;;8.32;;
23596;SDS011;40226;50.874;4.394;2022-11-27T16:29:27;14.05;;;7.50;;
23596;SDS011;40226;50.874;4.394;2022-11-27T16:31:53;15.10;;;7.90;;
23596;SDS011;40226;50.874;4.394;2022-11-27T16:34:24;15.18;;;7.97;;
23596;SDS011;40226;50.874;4.394;2022-11-27T16:36:52;13.77;;;8.15;;
23596;SDS011;40226;50.874;4.394;2022-11-27T16:39:18;13.77;;;7.65;;
23596;SDS011;40226;50.874;4.394;2022-11-27T16:41:44;14.73;;;8.05;;
23596;SDS011;40226;50.874;4.394;2022-11-27T16:44:13;11.70;;;8.23;;
23596;SDS011;40226;50.874;4.394;2022-11-27T16:46:39;14.40;;;7.20;;
23596;SDS011;40226;50.874;4.394;2022-11-27T16:49:09;13.20;;;7.90;;
23596;SDS011;40226;50.874;4.394;2022-11-27T16:51:37;12.57;;;7.63;;
23596;SDS011;40226;50.874;4.394;2022-11-27T16:54:05;14.90;;;7.85;;
23596;SDS011;40226;50.874;4.394;2022-11-27T16:56:35;13.60;;;6.70;;
23596;SDS011;40226;50.874;4.394;2022-11-27T16:59:05;15.57;;;7.68;;
23596;SDS011;40226;50.874;4.394;2022-11-27T17:01:35;11.30;;;7.25;;
23596;SDS011;40226;50.874;4.394;2022-11-27T17:04:04;14.38;;;8.20;;